sensor_id;sensor_type;location;lat;lon;timestamp;temperature;humidity
29281;DHT22;25048;49.590;11.026;2023-06-22T00:02:24;18.00;99.90
29281;DHT22;25048;49.590;11.026;2023-06-22T00:04:52;18.00;99.90
29281;DHT22;25048;49.590;11.026;2023-06-22T00:07:19;17.90;99.90
29281;DHT22;25048;49.590;11.026;2023-06-22T00:09:47;17.90;99.90
29281;DHT22;25048;49.590;11.026;2023-06-22T00:12:14;17.90;99.90
29281;DHT22;25048;49.590;11.026;2023-06-22T00:14:42;17.90;99.90
29281;DHT22;25048;49.590;11.026;2023-06-22T00:17:09;17.80;99.90
29281;DHT22;25048;49.590;11.026;2023-06-22T00:19:37;17.80;99.90
29281;DHT22;25048;49.590;11.026;2023-06-22T00:22:06;17.80;99.90
29281;DHT22;25048;49.590;11.026;2023-06-22T00:24:33;17.80;99.90
29281;DHT22;25048;49.590;11.026;2023-06-22T00:27:01;17.80;99.90
29281;DHT22;25048;49.590;11.026;2023-06-22T00:29:29;17.70;99.90
29281;DHT22;25048;49.590;11.026;2023-06-22T00:31:56;17.70;99.90
29281;DHT22;25048;49.590;11.026;2023-06-22T00:34:24;17.70;99.90
29281;DHT22;25048;49.590;11.026;2023-06-22T00:36:51;17.70;99.90
29281;DHT22;25048;49.590;11.026;2023-06-22T00:39:19;17.70;99.90
29281;DHT22;25048;49.590;11.026;2023-06-22T00:41:46;17.70;99.90
29281;DHT22;25048;49.590;11.026;2023-06-22T00:44:14;17.70;99.90
29281;DHT22;25048;49.590;11.026;2023-06-22T00:46:42;17.70;99.90
29281;DHT22;25048;49.590;11.026;2023-06-22T00:49:09;17.60;99.90
29281;DHT22;25048;49.590;11.026;2023-06-22T00:51:38;17.60;99.90
29281;DHT22;25048;49.590;11.026;2023-06-22T00:54:06;17.60;99.90
29281;DHT22;25048;49.590;11.026;2023-06-22T00:56:33;17.50;99.90
29281;DHT22;25048;49.590;11.026;2023-06-22T00:59:02;17.50;99.90
29281;DHT22;25048;49.590;11.026;2023-06-22T01:01:30;17.50;99.90
29281;DHT22;25048;49.590;11.026;2023-06-22T01:03:58;17.40;99.90
29281;DHT22;25048;49.590;11.026;2023-06-22T01:06:29;17.40;99.90
29281;DHT22;25048;49.590;11.026;2023-06-22T01:09:06;17.40;99.90
29281;DHT22;25048;49.590;11.026;2023-06-22T01:11:36;17.40;99.90
29281;DHT22;25048;49.590;11.026;2023-06-22T01:14:12;17.40;99.90
29281;DHT22;25048;49.590;11.026;2023-06-22T01:16:41;17.30;99.90
29281;DHT22;25048;49.590;11.026;2023-06-22T01:21:56;17.20;99.90
29281;DHT22;25048;49.590;11.026;2023-06-22T01:24:33;17.20;99.90
29281;DHT22;25048;49.590;11.026;2023-06-22T01:27:32;17.10;99.90
29281;DHT22;25048;49.590;11.026;2023-06-22T01:30:02;17.10;99.90
29281;DHT22;25048;49.590;11.026;2023-06-22T01:32:33;17.10;99.90
29281;DHT22;25048;49.590;11.026;2023-06-22T01:35:04;17.10;99.90
29281;DHT22;25048;49.590;11.026;2023-06-22T01:37:34;17.10;99.90
29281;DHT22;25048;49.590;11.026;2023-06-22T01:40:04;17.10;99.90
29281;DHT22;25048;49.590;11.026;2023-06-22T01:42:32;17.00;99.90
29281;DHT22;25048;49.590;11.026;2023-06-22T01:45:01;17.00;99.90
29281;DHT22;25048;49.590;11.026;2023-06-22T01:47:29;17.10;99.90
29281;DHT22;25048;49.590;11.026;2023-06-22T01:49:57;17.10;99.90
29281;DHT22;25048;49.590;11.026;2023-06-22T01:52:24;17.00;99.90
29281;DHT22;25048;49.590;11.026;2023-06-22T01:54:52;17.00;99.90
29281;DHT22;25048;49.590;11.026;2023-06-22T01:57:20;17.00;99.90
29281;DHT22;25048;49.590;11.026;2023-06-22T02:00:02;17.00;99.90
29281;DHT22;25048;49.590;11.026;2023-06-22T02:02:38;16.90;99.90
29281;DHT22;25048;49.590;11.026;2023-06-22T02:05:03;16.90;99.90
29281;DHT22;25048;49.590;11.026;2023-06-22T02:08:22;16.90;99.90
29281;DHT22;25048;49.590;11.026;2023-06-22T02:10:07;16.90;99.90
29281;DHT22;25048;49.590;11.026;2023-06-22T02:12:36;16.80;99.90
29281;DHT22;25048;49.590;11.026;2023-06-22T02:15:04;16.80;99.90
29281;DHT22;25048;49.590;11.026;2023-06-22T02:17:33;16.70;99.90
29281;DHT22;25048;49.590;11.026;2023-06-22T02:20:03;16.70;99.90
29281;DHT22;25048;49.590;11.026;2023-06-22T02:22:35;16.70;99.90
29281;DHT22;25048;49.590;11.026;2023-06-22T02:25:02;16.60;99.90
29281;DHT22;25048;49.590;11.026;2023-06-22T02:27:30;16.60;99.90
29281;DHT22;25048;49.590;11.026;2023-06-22T02:29:57;16.60;99.90
29281;DHT22;25048;49.590;11.026;2023-06-22T02:32:25;16.50;99.90
29281;DHT22;25048;49.590;11.026;2023-06-22T02:34:53;16.50;99.90
29281;DHT22;25048;49.590;11.026;2023-06-22T02:37:20;16.50;99.90
29281;DHT22;25048;49.590;11.026;2023-06-22T02:39:49;16.50;99.90
29281;DHT22;25048;49.590;11.026;2023-06-22T02:42:17;16.50;99.90
29281;DHT22;25048;49.590;11.026;2023-06-22T02:44:47;16.50;99.90
29281;DHT22;25048;49.590;11.026;2023-06-22T02:47:15;16.50;99.90
29281;DHT22;25048;49.590;11.026;2023-06-22T02:49:43;16.60;99.90
29281;DHT22;25048;49.590;11.026;2023-06-22T02:52:12;16.70;99.90
29281;DHT22;25048;49.590;11.026;2023-06-22T02:54:39;16.90;99.90
29281;DHT22;25048;49.590;11.026;2023-06-22T02:57:07;17.10;99.90
29281;DHT22;25048;49.590;11.026;2023-06-22T02:59:36;17.20;99.90
29281;DHT22;25048;49.590;11.026;2023-06-22T03:02:06;17.30;99.90
29281;DHT22;25048;49.590;11.026;2023-06-22T03:04:34;17.40;99.90
29281;DHT22;25048;49.590;11.026;2023-06-22T03:07:02;17.40;99.90
29281;DHT22;25048;49.590;11.026;2023-06-22T03:09:30;17.50;99.90
29281;DHT22;25048;49.590;11.026;2023-06-22T03:11:58;17.50;99.90
29281;DHT22;25048;49.590;11.026;2023-06-22T03:14:25;17.50;99.90
29281;DHT22;25048;49.590;11.026;2023-06-22T03:16:53;17.50;99.90
29281;DHT22;25048;49.590;11.026;2023-06-22T03:19:20;17.50;99.90
29281;DHT22;25048;49.590;11.026;2023-06-22T03:21:48;17.50;99.90
29281;DHT22;25048;49.590;11.026;2023-06-22T03:24:15;17.50;99.90
29281;DHT22;25048;49.590;11.026;2023-06-22T03:26:43;17.50;99.90
29281;DHT22;25048;49.590;11.026;2023-06-22T03:29:12;17.50;99.90
29281;DHT22;25048;49.590;11.026;2023-06-22T03:31:40;17.50;99.90
29281;DHT22;25048;49.590;11.026;2023-06-22T03:34:07;17.50;99.90
29281;DHT22;25048;49.590;11.026;2023-06-22T03:36:35;17.50;99.90
29281;DHT22;25048;49.590;11.026;2023-06-22T03:39:03;17.50;99.90
29281;DHT22;25048;49.590;11.026;2023-06-22T03:41:30;17.50;99.90
29281;DHT22;25048;49.590;11.026;2023-06-22T03:43:58;17.50;99.90
29281;DHT22;25048;49.590;11.026;2023-06-22T03:46:25;17.50;99.90
29281;DHT22;25048;49.590;11.026;2023-06-22T03:48:53;17.50;99.90
29281;DHT22;25048;49.590;11.026;2023-06-22T03:51:20;17.50;99.90
29281;DHT22;25048;49.590;11.026;2023-06-22T03:53:48;17.50;99.90
29281;DHT22;25048;49.590;11.026;2023-06-22T03:56:15;17.50;99.90
29281;DHT22;25048;49.590;11.026;2023-06-22T03:58:45;17.50;99.90
29281;DHT22;25048;49.590;11.026;2023-06-22T04:01:12;17.60;99.90
29281;DHT22;25048;49.590;11.026;2023-06-22T04:03:41;17.60;99.90
29281;DHT22;25048;49.590;11.026;2023-06-22T04:06:09;17.70;99.90
29281;DHT22;25048;49.590;11.026;2023-06-22T04:08:36;17.70;99.90
29281;DHT22;25048;49.590;11.026;2023-06-22T04:11:04;17.70;99.90
29281;DHT22;25048;49.590;11.026;2023-06-22T04:13:31;17.80;99.90
29281;DHT22;25048;49.590;11.026;2023-06-22T04:15:59;17.80;99.90
29281;DHT22;25048;49.590;11.026;2023-06-22T04:18:27;17.80;99.90
29281;DHT22;25048;49.590;11.026;2023-06-22T04:20:55;17.90;99.90
29281;DHT22;25048;49.590;11.026;2023-06-22T04:23:22;17.90;99.90
29281;DHT22;25048;49.590;11.026;2023-06-22T04:25:50;17.90;99.90
29281;DHT22;25048;49.590;11.026;2023-06-22T04:28:18;18.00;99.90
29281;DHT22;25048;49.590;11.026;2023-06-22T04:30:45;18.00;99.90
29281;DHT22;25048;49.590;11.026;2023-06-22T04:33:16;18.10;99.90
29281;DHT22;25048;49.590;11.026;2023-06-22T04:35:46;18.10;99.90
29281;DHT22;25048;49.590;11.026;2023-06-22T04:38:14;18.10;99.90
29281;DHT22;25048;49.590;11.026;2023-06-22T04:40:41;18.10;99.90
29281;DHT22;25048;49.590;11.026;2023-06-22T04:43:09;18.20;99.90
29281;DHT22;25048;49.590;11.026;2023-06-22T04:45:36;18.20;99.90
29281;DHT22;25048;49.590;11.026;2023-06-22T04:48:07;18.20;99.90
29281;DHT22;25048;49.590;11.026;2023-06-22T04:50:37;18.30;99.90
29281;DHT22;25048;49.590;11.026;2023-06-22T04:53:05;18.30;99.90
29281;DHT22;25048;49.590;11.026;2023-06-22T04:55:33;18.30;99.90
29281;DHT22;25048;49.590;11.026;2023-06-22T04:58:03;18.40;99.90
29281;DHT22;25048;49.590;11.026;2023-06-22T05:00:32;18.40;99.90
29281;DHT22;25048;49.590;11.026;2023-06-22T05:03:01;18.40;99.90
29281;DHT22;25048;49.590;11.026;2023-06-22T05:05:30;18.50;99.90
29281;DHT22;25048;49.590;11.026;2023-06-22T05:07:57;18.50;99.90
29281;DHT22;25048;49.590;11.026;2023-06-22T05:10:28;18.60;99.90
29281;DHT22;25048;49.590;11.026;2023-06-22T05:12:55;18.70;99.90
29281;DHT22;25048;49.590;11.026;2023-06-22T05:15:23;18.80;99.90
29281;DHT22;25048;49.590;11.026;2023-06-22T05:17:52;18.90;99.90
29281;DHT22;25048;49.590;11.026;2023-06-22T05:20:20;19.00;99.90
29281;DHT22;25048;49.590;11.026;2023-06-22T05:22:48;19.10;99.90
29281;DHT22;25048;49.590;11.026;2023-06-22T05:25:16;19.20;99.90
29281;DHT22;25048;49.590;11.026;2023-06-22T05:27:43;19.40;99.90
29281;DHT22;25048;49.590;11.026;2023-06-22T05:30:11;19.50;99.90
29281;DHT22;25048;49.590;11.026;2023-06-22T05:32:38;19.60;99.90
29281;DHT22;25048;49.590;11.026;2023-06-22T05:35:06;19.80;99.90
29281;DHT22;25048;49.590;11.026;2023-06-22T05:37:34;19.90;99.90
29281;DHT22;25048;49.590;11.026;2023-06-22T05:40:01;20.10;99.90
29281;DHT22;25048;49.590;11.026;2023-06-22T05:42:29;20.30;99.90
29281;DHT22;25048;49.590;11.026;2023-06-22T05:44:56;20.50;99.90
29281;DHT22;25048;49.590;11.026;2023-06-22T05:47:25;20.80;99.90
29281;DHT22;25048;49.590;11.026;2023-06-22T05:49:53;21.10;99.90
29281;DHT22;25048;49.590;11.026;2023-06-22T05:52:20;21.50;99.90
29281;DHT22;25048;49.590;11.026;2023-06-22T05:54:48;21.80;99.90
29281;DHT22;25048;49.590;11.026;2023-06-22T05:57:15;22.20;99.90
29281;DHT22;25048;49.590;11.026;2023-06-22T05:59:43;22.50;99.90
29281;DHT22;25048;49.590;11.026;2023-06-22T06:02:10;22.90;99.90
29281;DHT22;25048;49.590;11.026;2023-06-22T06:04:38;23.20;99.90
29281;DHT22;25048;49.590;11.026;2023-06-22T06:07:05;23.40;99.90
29281;DHT22;25048;49.590;11.026;2023-06-22T06:09:33;23.70;99.90
29281;DHT22;25048;49.590;11.026;2023-06-22T06:12:00;23.80;99.90
29281;DHT22;25048;49.590;11.026;2023-06-22T06:14:29;24.00;99.90
29281;DHT22;25048;49.590;11.026;2023-06-22T06:16:57;24.20;99.90
29281;DHT22;25048;49.590;11.026;2023-06-22T06:19:24;24.30;99.90
29281;DHT22;25048;49.590;11.026;2023-06-22T06:21:52;24.50;99.90
29281;DHT22;25048;49.590;11.026;2023-06-22T06:24:19;24.50;99.90
29281;DHT22;25048;49.590;11.026;2023-06-22T06:26:47;24.60;99.90
29281;DHT22;25048;49.590;11.026;2023-06-22T06:29:14;24.70;99.90
29281;DHT22;25048;49.590;11.026;2023-06-22T06:31:42;24.70;99.90
29281;DHT22;25048;49.590;11.026;2023-06-22T06:34:10;24.80;99.90
29281;DHT22;25048;49.590;11.026;2023-06-22T06:36:37;24.90;99.90
29281;DHT22;25048;49.590;11.026;2023-06-22T06:39:05;25.00;99.90
29281;DHT22;25048;49.590;11.026;2023-06-22T06:41:33;25.10;99.90
29281;DHT22;25048;49.590;11.026;2023-06-22T06:44:00;25.10;99.90
29281;DHT22;25048;49.590;11.026;2023-06-22T06:46:28;25.10;99.90
29281;DHT22;25048;49.590;11.026;2023-06-22T06:48:55;25.10;99.90
29281;DHT22;25048;49.590;11.026;2023-06-22T06:51:23;25.10;99.90
29281;DHT22;25048;49.590;11.026;2023-06-22T06:53:50;25.00;99.90
29281;DHT22;25048;49.590;11.026;2023-06-22T06:56:18;25.10;99.90
29281;DHT22;25048;49.590;11.026;2023-06-22T06:58:45;25.20;99.90
29281;DHT22;25048;49.590;11.026;2023-06-22T07:01:13;25.20;99.90
29281;DHT22;25048;49.590;11.026;2023-06-22T07:03:40;25.30;99.90
29281;DHT22;25048;49.590;11.026;2023-06-22T07:06:09;25.40;99.90
29281;DHT22;25048;49.590;11.026;2023-06-22T07:08:36;25.60;99.90
29281;DHT22;25048;49.590;11.026;2023-06-22T07:11:06;25.60;99.90
29281;DHT22;25048;49.590;11.026;2023-06-22T07:13:33;25.80;99.90
29281;DHT22;25048;49.590;11.026;2023-06-22T07:16:01;25.90;99.90
29281;DHT22;25048;49.590;11.026;2023-06-22T07:18:28;26.00;99.90
29281;DHT22;25048;49.590;11.026;2023-06-22T07:20:56;26.10;99.90
29281;DHT22;25048;49.590;11.026;2023-06-22T07:23:24;26.20;99.90
29281;DHT22;25048;49.590;11.026;2023-06-22T07:25:52;26.30;99.90
29281;DHT22;25048;49.590;11.026;2023-06-22T07:28:19;26.40;99.90
29281;DHT22;25048;49.590;11.026;2023-06-22T07:30:47;26.50;99.90
29281;DHT22;25048;49.590;11.026;2023-06-22T07:33:14;26.60;99.90
29281;DHT22;25048;49.590;11.026;2023-06-22T07:35:43;26.70;99.90
29281;DHT22;25048;49.590;11.026;2023-06-22T07:38:11;26.80;99.90
29281;DHT22;25048;49.590;11.026;2023-06-22T07:40:38;26.90;99.90
29281;DHT22;25048;49.590;11.026;2023-06-22T07:43:07;27.00;99.90
29281;DHT22;25048;49.590;11.026;2023-06-22T07:45:35;27.10;99.90
29281;DHT22;25048;49.590;11.026;2023-06-22T07:48:03;27.20;99.90
29281;DHT22;25048;49.590;11.026;2023-06-22T07:50:30;27.40;99.90
29281;DHT22;25048;49.590;11.026;2023-06-22T07:52:58;27.60;99.90
29281;DHT22;25048;49.590;11.026;2023-06-22T07:55:25;27.80;99.90
29281;DHT22;25048;49.590;11.026;2023-06-22T07:57:53;27.90;99.90
29281;DHT22;25048;49.590;11.026;2023-06-22T08:00:20;28.00;99.90
29281;DHT22;25048;49.590;11.026;2023-06-22T08:02:48;28.10;99.90
29281;DHT22;25048;49.590;11.026;2023-06-22T08:05:15;28.20;99.90
29281;DHT22;25048;49.590;11.026;2023-06-22T08:07:44;28.30;99.90
29281;DHT22;25048;49.590;11.026;2023-06-22T08:10:11;28.50;99.90
29281;DHT22;25048;49.590;11.026;2023-06-22T08:12:42;28.60;99.90
29281;DHT22;25048;49.590;11.026;2023-06-22T08:15:10;28.60;99.90
29281;DHT22;25048;49.590;11.026;2023-06-22T08:17:38;28.70;99.90
29281;DHT22;25048;49.590;11.026;2023-06-22T08:20:07;28.70;99.90
29281;DHT22;25048;49.590;11.026;2023-06-22T08:22:39;28.70;99.90
29281;DHT22;25048;49.590;11.026;2023-06-22T08:25:08;28.80;99.90
29281;DHT22;25048;49.590;11.026;2023-06-22T08:27:36;28.90;99.90
29281;DHT22;25048;49.590;11.026;2023-06-22T08:30:04;29.00;99.90
29281;DHT22;25048;49.590;11.026;2023-06-22T08:32:32;29.10;99.90
29281;DHT22;25048;49.590;11.026;2023-06-22T08:35:00;29.10;99.90
29281;DHT22;25048;49.590;11.026;2023-06-22T08:37:28;29.10;99.90
29281;DHT22;25048;49.590;11.026;2023-06-22T08:40:01;28.90;99.90
29281;DHT22;25048;49.590;11.026;2023-06-22T08:42:31;28.90;99.90
29281;DHT22;25048;49.590;11.026;2023-06-22T08:44:58;29.10;99.90
29281;DHT22;25048;49.590;11.026;2023-06-22T08:47:27;29.20;99.90
29281;DHT22;25048;49.590;11.026;2023-06-22T08:49:55;29.30;99.90
29281;DHT22;25048;49.590;11.026;2023-06-22T08:52:23;29.40;99.90
29281;DHT22;25048;49.590;11.026;2023-06-22T08:54:51;29.50;99.90
29281;DHT22;25048;49.590;11.026;2023-06-22T08:57:19;29.60;99.90
29281;DHT22;25048;49.590;11.026;2023-06-22T08:59:46;29.70;99.90
29281;DHT22;25048;49.590;11.026;2023-06-22T09:02:14;29.80;99.90
29281;DHT22;25048;49.590;11.026;2023-06-22T09:04:43;30.00;99.90
29281;DHT22;25048;49.590;11.026;2023-06-22T09:07:10;30.20;99.90
29281;DHT22;25048;49.590;11.026;2023-06-22T09:09:38;30.40;99.90
29281;DHT22;25048;49.590;11.026;2023-06-22T09:12:06;30.60;99.90
29281;DHT22;25048;49.590;11.026;2023-06-22T09:14:34;30.60;99.90
29281;DHT22;25048;49.590;11.026;2023-06-22T09:17:02;30.70;99.90
29281;DHT22;25048;49.590;11.026;2023-06-22T09:19:29;30.70;99.90
29281;DHT22;25048;49.590;11.026;2023-06-22T09:21:57;30.80;99.90
29281;DHT22;25048;49.590;11.026;2023-06-22T09:24:24;31.00;99.90
29281;DHT22;25048;49.590;11.026;2023-06-22T09:26:52;31.20;99.90
29281;DHT22;25048;49.590;11.026;2023-06-22T09:29:19;31.30;99.90
29281;DHT22;25048;49.590;11.026;2023-06-22T09:31:47;31.30;99.90
29281;DHT22;25048;49.590;11.026;2023-06-22T09:34:14;31.30;99.90
29281;DHT22;25048;49.590;11.026;2023-06-22T09:36:41;31.10;99.90
29281;DHT22;25048;49.590;11.026;2023-06-22T09:39:09;31.10;99.90
29281;DHT22;25048;49.590;11.026;2023-06-22T09:41:36;31.10;99.90
29281;DHT22;25048;49.590;11.026;2023-06-22T09:44:04;31.30;99.90
29281;DHT22;25048;49.590;11.026;2023-06-22T09:46:32;31.40;99.90
29281;DHT22;25048;49.590;11.026;2023-06-22T09:48:59;31.60;99.90
29281;DHT22;25048;49.590;11.026;2023-06-22T09:51:27;31.70;99.90
29281;DHT22;25048;49.590;11.026;2023-06-22T09:53:54;31.90;99.90
29281;DHT22;25048;49.590;11.026;2023-06-22T09:56:22;32.10;99.80
29281;DHT22;25048;49.590;11.026;2023-06-22T09:58:49;32.20;99.40
29281;DHT22;25048;49.590;11.026;2023-06-22T10:01:18;32.30;99.10
29281;DHT22;25048;49.590;11.026;2023-06-22T10:03:47;32.40;99.40
29281;DHT22;25048;49.590;11.026;2023-06-22T10:06:14;32.50;97.80
29281;DHT22;25048;49.590;11.026;2023-06-22T10:08:42;32.60;98.50
29281;DHT22;25048;49.590;11.026;2023-06-22T10:11:09;32.60;97.90
29281;DHT22;25048;49.590;11.026;2023-06-22T10:13:37;32.70;97.90
29281;DHT22;25048;49.590;11.026;2023-06-22T10:16:04;32.80;99.30
29281;DHT22;25048;49.590;11.026;2023-06-22T10:18:32;32.90;98.10
29281;DHT22;25048;49.590;11.026;2023-06-22T10:21:00;33.00;97.90
29281;DHT22;25048;49.590;11.026;2023-06-22T10:23:27;33.20;98.00
29281;DHT22;25048;49.590;11.026;2023-06-22T10:25:55;33.40;96.60
29281;DHT22;25048;49.590;11.026;2023-06-22T10:28:24;33.50;95.90
29281;DHT22;25048;49.590;11.026;2023-06-22T10:30:52;33.60;95.80
29281;DHT22;25048;49.590;11.026;2023-06-22T10:33:19;33.70;95.90
29281;DHT22;25048;49.590;11.026;2023-06-22T10:35:47;33.80;96.30
29281;DHT22;25048;49.590;11.026;2023-06-22T10:38:14;33.90;96.50
29281;DHT22;25048;49.590;11.026;2023-06-22T10:40:42;34.00;95.60
29281;DHT22;25048;49.590;11.026;2023-06-22T10:43:10;34.20;96.60
29281;DHT22;25048;49.590;11.026;2023-06-22T10:45:37;34.30;93.60
29281;DHT22;25048;49.590;11.026;2023-06-22T10:48:05;34.30;93.10
29281;DHT22;25048;49.590;11.026;2023-06-22T10:50:32;34.40;95.20
29281;DHT22;25048;49.590;11.026;2023-06-22T10:53:00;34.50;93.90
29281;DHT22;25048;49.590;11.026;2023-06-22T10:55:27;34.60;93.60
29281;DHT22;25048;49.590;11.026;2023-06-22T10:57:55;34.60;93.70
29281;DHT22;25048;49.590;11.026;2023-06-22T11:00:22;34.70;92.90
29281;DHT22;25048;49.590;11.026;2023-06-22T11:02:50;34.70;92.80
29281;DHT22;25048;49.590;11.026;2023-06-22T11:05:18;34.70;91.60
29281;DHT22;25048;49.590;11.026;2023-06-22T11:07:45;34.70;91.60
29281;DHT22;25048;49.590;11.026;2023-06-22T11:10:14;34.80;91.40
29281;DHT22;25048;49.590;11.026;2023-06-22T11:12:42;34.90;90.80
29281;DHT22;25048;49.590;11.026;2023-06-22T11:15:09;34.90;91.30
29281;DHT22;25048;49.590;11.026;2023-06-22T11:17:37;34.90;90.80
29281;DHT22;25048;49.590;11.026;2023-06-22T11:20:05;34.80;91.40
29281;DHT22;25048;49.590;11.026;2023-06-22T11:22:41;34.60;89.40
29281;DHT22;25048;49.590;11.026;2023-06-22T11:25:08;34.40;90.90
29281;DHT22;25048;49.590;11.026;2023-06-22T11:27:38;34.30;89.80
29281;DHT22;25048;49.590;11.026;2023-06-22T11:30:06;34.40;92.10
29281;DHT22;25048;49.590;11.026;2023-06-22T11:32:34;34.60;90.90
29281;DHT22;25048;49.590;11.026;2023-06-22T11:35:02;34.80;89.80
29281;DHT22;25048;49.590;11.026;2023-06-22T11:37:29;34.90;90.00
29281;DHT22;25048;49.590;11.026;2023-06-22T11:39:57;35.00;90.70
29281;DHT22;25048;49.590;11.026;2023-06-22T11:42:24;35.30;87.30
29281;DHT22;25048;49.590;11.026;2023-06-22T11:44:52;35.40;90.00
29281;DHT22;25048;49.590;11.026;2023-06-22T11:47:19;35.50;85.20
29281;DHT22;25048;49.590;11.026;2023-06-22T11:49:47;35.50;86.50
29281;DHT22;25048;49.590;11.026;2023-06-22T11:52:14;35.30;85.20
29281;DHT22;25048;49.590;11.026;2023-06-22T11:54:44;35.40;82.30
29281;DHT22;25048;49.590;11.026;2023-06-22T11:57:12;35.70;85.70
29281;DHT22;25048;49.590;11.026;2023-06-22T11:59:39;35.90;85.80
29281;DHT22;25048;49.590;11.026;2023-06-22T12:02:07;36.00;83.40
29281;DHT22;25048;49.590;11.026;2023-06-22T12:04:36;36.30;80.80
29281;DHT22;25048;49.590;11.026;2023-06-22T12:07:04;36.40;84.80
29281;DHT22;25048;49.590;11.026;2023-06-22T12:09:31;36.60;84.80
29281;DHT22;25048;49.590;11.026;2023-06-22T12:11:59;36.70;81.00
29281;DHT22;25048;49.590;11.026;2023-06-22T12:14:26;36.80;80.80
29281;DHT22;25048;49.590;11.026;2023-06-22T12:16:54;36.90;79.40
29281;DHT22;25048;49.590;11.026;2023-06-22T12:19:22;36.90;83.60
29281;DHT22;25048;49.590;11.026;2023-06-22T12:21:49;36.90;76.40
29281;DHT22;25048;49.590;11.026;2023-06-22T12:24:17;37.00;81.50
29281;DHT22;25048;49.590;11.026;2023-06-22T12:26:44;37.00;77.30
29281;DHT22;25048;49.590;11.026;2023-06-22T12:29:12;37.10;78.80
29281;DHT22;25048;49.590;11.026;2023-06-22T12:31:39;37.30;80.50
29281;DHT22;25048;49.590;11.026;2023-06-22T12:34:08;37.60;76.30
29281;DHT22;25048;49.590;11.026;2023-06-22T12:36:35;37.90;75.90
29281;DHT22;25048;49.590;11.026;2023-06-22T12:39:03;38.10;74.50
29281;DHT22;25048;49.590;11.026;2023-06-22T12:41:30;38.10;75.00
29281;DHT22;25048;49.590;11.026;2023-06-22T12:43:58;37.80;72.20
29281;DHT22;25048;49.590;11.026;2023-06-22T12:46:25;37.60;71.50
29281;DHT22;25048;49.590;11.026;2023-06-22T12:48:53;37.50;77.20
29281;DHT22;25048;49.590;11.026;2023-06-22T12:51:21;37.50;73.60
29281;DHT22;25048;49.590;11.026;2023-06-22T12:53:49;37.60;74.50
29281;DHT22;25048;49.590;11.026;2023-06-22T12:56:17;37.60;72.50
29281;DHT22;25048;49.590;11.026;2023-06-22T12:58:44;37.80;73.80
29281;DHT22;25048;49.590;11.026;2023-06-22T13:01:12;37.80;74.10
29281;DHT22;25048;49.590;11.026;2023-06-22T13:03:40;37.60;70.70
29281;DHT22;25048;49.590;11.026;2023-06-22T13:06:08;37.30;72.60
29281;DHT22;25048;49.590;11.026;2023-06-22T13:08:35;37.00;74.50
29281;DHT22;25048;49.590;11.026;2023-06-22T13:11:03;36.90;74.70
29281;DHT22;25048;49.590;11.026;2023-06-22T13:13:31;36.70;72.00
29281;DHT22;25048;49.590;11.026;2023-06-22T13:16:03;36.50;72.00
29281;DHT22;25048;49.590;11.026;2023-06-22T13:18:31;36.40;75.00
29281;DHT22;25048;49.590;11.026;2023-06-22T13:20:59;36.40;74.20
29281;DHT22;25048;49.590;11.026;2023-06-22T13:23:27;36.50;74.30
29281;DHT22;25048;49.590;11.026;2023-06-22T13:25:54;36.70;75.10
29281;DHT22;25048;49.590;11.026;2023-06-22T13:28:22;37.00;74.40
29281;DHT22;25048;49.590;11.026;2023-06-22T13:30:49;37.20;77.70
29281;DHT22;25048;49.590;11.026;2023-06-22T13:33:17;37.40;72.00
29281;DHT22;25048;49.590;11.026;2023-06-22T13:35:44;37.50;73.60
29281;DHT22;25048;49.590;11.026;2023-06-22T13:38:12;37.60;69.20
29281;DHT22;25048;49.590;11.026;2023-06-22T13:40:39;37.60;70.80
29281;DHT22;25048;49.590;11.026;2023-06-22T13:43:07;37.50;67.40
29281;DHT22;25048;49.590;11.026;2023-06-22T13:45:35;37.30;68.50
29281;DHT22;25048;49.590;11.026;2023-06-22T13:48:02;37.00;68.70
29281;DHT22;25048;49.590;11.026;2023-06-22T13:50:30;36.70;65.40
29281;DHT22;25048;49.590;11.026;2023-06-22T13:52:58;36.40;69.30
29281;DHT22;25048;49.590;11.026;2023-06-22T13:55:25;36.20;70.00
29281;DHT22;25048;49.590;11.026;2023-06-22T13:57:53;35.90;69.40
29281;DHT22;25048;49.590;11.026;2023-06-22T14:00:20;35.90;71.50
29281;DHT22;25048;49.590;11.026;2023-06-22T14:02:48;35.70;70.20
29281;DHT22;25048;49.590;11.026;2023-06-22T14:05:15;35.60;71.70
29281;DHT22;25048;49.590;11.026;2023-06-22T14:07:43;35.60;71.30
29281;DHT22;25048;49.590;11.026;2023-06-22T14:10:10;35.50;75.20
29281;DHT22;25048;49.590;11.026;2023-06-22T14:12:38;35.50;74.50
29281;DHT22;25048;49.590;11.026;2023-06-22T14:15:06;35.60;73.20
29281;DHT22;25048;49.590;11.026;2023-06-22T14:17:34;35.90;74.30
29281;DHT22;25048;49.590;11.026;2023-06-22T14:20:01;36.50;81.00
29281;DHT22;25048;49.590;11.026;2023-06-22T14:22:29;37.00;75.20
29281;DHT22;25048;49.590;11.026;2023-06-22T14:24:57;37.20;71.20
29281;DHT22;25048;49.590;11.026;2023-06-22T14:27:25;37.30;71.20
29281;DHT22;25048;49.590;11.026;2023-06-22T14:29:52;37.40;70.40
29281;DHT22;25048;49.590;11.026;2023-06-22T14:32:20;37.30;70.60
29281;DHT22;25048;49.590;11.026;2023-06-22T14:34:47;37.20;72.20
29281;DHT22;25048;49.590;11.026;2023-06-22T14:37:16;37.20;68.30
29281;DHT22;25048;49.590;11.026;2023-06-22T14:39:44;37.10;70.20
29281;DHT22;25048;49.590;11.026;2023-06-22T14:42:11;37.10;77.80
29281;DHT22;25048;49.590;11.026;2023-06-22T14:44:39;37.30;70.60
29281;DHT22;25048;49.590;11.026;2023-06-22T14:47:06;37.60;69.00
29281;DHT22;25048;49.590;11.026;2023-06-22T14:49:34;37.90;68.70
29281;DHT22;25048;49.590;11.026;2023-06-22T14:52:02;37.90;68.30
29281;DHT22;25048;49.590;11.026;2023-06-22T14:54:30;37.60;65.40
29281;DHT22;25048;49.590;11.026;2023-06-22T14:56:57;37.20;64.50
29281;DHT22;25048;49.590;11.026;2023-06-22T14:59:25;36.70;66.50
29281;DHT22;25048;49.590;11.026;2023-06-22T15:01:52;36.60;66.30
29281;DHT22;25048;49.590;11.026;2023-06-22T15:04:20;36.90;68.50
29281;DHT22;25048;49.590;11.026;2023-06-22T15:06:47;37.20;65.40
29281;DHT22;25048;49.590;11.026;2023-06-22T15:09:15;37.60;70.20
29281;DHT22;25048;49.590;11.026;2023-06-22T15:11:42;38.00;67.80
29281;DHT22;25048;49.590;11.026;2023-06-22T15:14:10;38.40;69.90
29281;DHT22;25048;49.590;11.026;2023-06-22T15:16:37;38.70;61.50
29281;DHT22;25048;49.590;11.026;2023-06-22T15:19:05;38.90;64.30
29281;DHT22;25048;49.590;11.026;2023-06-22T15:21:32;39.00;63.50
29281;DHT22;25048;49.590;11.026;2023-06-22T15:24:00;39.10;61.10